sensor_id;sensor_type;location;lat;lon;timestamp;pressure;altitude;pressure_sealevel;temperature;humidity
37200;BME280;23096;50.892;16.746;2022-10-16T00:01:25;99221.66;;;13.01;77.18
37200;BME280;23096;50.892;16.746;2022-10-16T00:03:54;99217.06;;;12.97;77.12
37200;BME280;23096;50.892;16.746;2022-10-16T00:06:21;99212.47;;;12.94;77.26
37200;BME280;23096;50.892;16.746;2022-10-16T00:08:49;99209.11;;;12.92;77.20
37200;BME280;23096;50.892;16.746;2022-10-16T00:11:20;99209.69;;;12.88;77.29
37200;BME280;23096;50.892;16.746;2022-10-16T00:13:45;99208.92;;;12.86;77.31
37200;BME280;23096;50.892;16.746;2022-10-16T00:16:12;99199.56;;;12.83;77.33
37200;BME280;23096;50.892;16.746;2022-10-16T00:18:39;99210.27;;;12.84;77.38
37200;BME280;23096;50.892;16.746;2022-10-16T00:21:07;99215.13;;;12.82;77.35
37200;BME280;23096;50.892;16.746;2022-10-16T00:23:35;99217.78;;;12.80;77.52
37200;BME280;23096;50.892;16.746;2022-10-16T00:26:03;99209.96;;;12.82;77.57
37200;BME280;23096;50.892;16.746;2022-10-16T00:28:31;99214.55;;;12.85;77.66
37200;BME280;23096;50.892;16.746;2022-10-16T00:30:57;99214.98;;;12.85;77.61
37200;BME280;23096;50.892;16.746;2022-10-16T00:33:23;99215.84;;;12.85;77.65
37200;BME280;23096;50.892;16.746;2022-10-16T00:35:49;99223.61;;;12.85;77.60
37200;BME280;23096;50.892;16.746;2022-10-16T00:38:16;99225.07;;;12.81;77.56
37200;BME280;23096;50.892;16.746;2022-10-16T00:40:42;99223.78;;;12.81;77.69
37200;BME280;23096;50.892;16.746;2022-10-16T00:43:12;99225.02;;;12.82;77.79
37200;BME280;23096;50.892;16.746;2022-10-16T00:45:57;99229.09;;;12.88;77.89
37200;BME280;23096;50.892;16.746;2022-10-16T00:48:23;99232.91;;;12.90;77.85
37200;BME280;23096;50.892;16.746;2022-10-16T00:50:49;99225.03;;;12.93;77.87
37200;BME280;23096;50.892;16.746;2022-10-16T00:53:16;99224.88;;;12.96;77.96
37200;BME280;23096;50.892;16.746;2022-10-16T00:55:42;99225.22;;;12.98;77.96
37200;BME280;23096;50.892;16.746;2022-10-16T00:58:08;99227.75;;;13.00;77.99
37200;BME280;23096;50.892;16.746;2022-10-16T01:00:35;99229.30;;;13.04;78.10
37200;BME280;23096;50.892;16.746;2022-10-16T01:03:01;99225.20;;;13.09;78.13
37200;BME280;23096;50.892;16.746;2022-10-16T01:05:37;99231.08;;;13.12;78.18
37200;BME280;23096;50.892;16.746;2022-10-16T01:13:42;99239.37;;;13.20;78.19
37200;BME280;23096;50.892;16.746;2022-10-16T01:16:19;99231.16;;;13.21;78.20
37200;BME280;23096;50.892;16.746;2022-10-16T01:18:45;99220.86;;;13.19;78.21
37200;BME280;23096;50.892;16.746;2022-10-16T01:21:23;99223.45;;;13.19;78.17
37200;BME280;23096;50.892;16.746;2022-10-16T01:29:15;99227.48;;;13.16;78.24
37200;BME280;23096;50.892;16.746;2022-10-16T01:31:44;99225.42;;;13.14;78.23
37200;BME280;23096;50.892;16.746;2022-10-16T01:37:11;99224.19;;;13.13;78.35
37200;BME280;23096;50.892;16.746;2022-10-16T01:39:35;99220.30;;;13.13;78.39
37200;BME280;23096;50.892;16.746;2022-10-16T01:42:06;99225.08;;;13.12;78.34
37200;BME280;23096;50.892;16.746;2022-10-16T01:44:42;99225.91;;;13.12;78.42
37200;BME280;23096;50.892;16.746;2022-10-16T01:47:09;99218.61;;;13.12;78.48
37200;BME280;23096;50.892;16.746;2022-10-16T01:49:38;99219.38;;;13.14;78.53
37200;BME280;23096;50.892;16.746;2022-10-16T01:52:05;99227.08;;;13.15;78.50
37200;BME280;23096;50.892;16.746;2022-10-16T01:54:34;99228.44;;;13.14;78.46
37200;BME280;23096;50.892;16.746;2022-10-16T01:57:04;99216.09;;;13.10;78.43
37200;BME280;23096;50.892;16.746;2022-10-16T01:59:35;99212.79;;;13.07;78.44
37200;BME280;23096;50.892;16.746;2022-10-16T02:02:04;99222.36;;;13.04;78.48
37200;BME280;23096;50.892;16.746;2022-10-16T02:04:32;99220.77;;;13.02;78.47
37200;BME280;23096;50.892;16.746;2022-10-16T02:07:04;99232.00;;;13.01;78.49
37200;BME280;23096;50.892;16.746;2022-10-16T02:09:37;99238.52;;;12.99;78.51
37200;BME280;23096;50.892;16.746;2022-10-16T02:12:00;99231.63;;;13.00;78.59
37200;BME280;23096;50.892;16.746;2022-10-16T02:14:29;99238.86;;;13.02;78.62
37200;BME280;23096;50.892;16.746;2022-10-16T02:16:56;99239.23;;;13.03;78.61
37200;BME280;23096;50.892;16.746;2022-10-16T02:19:22;99230.25;;;13.01;78.61
37200;BME280;23096;50.892;16.746;2022-10-16T02:24:30;99233.69;;;13.02;78.61
37200;BME280;23096;50.892;16.746;2022-10-16T02:29:39;99242.09;;;12.97;78.60
37200;BME280;23096;50.892;16.746;2022-10-16T02:32:11;99253.33;;;12.96;78.57
37200;BME280;23096;50.892;16.746;2022-10-16T02:34:38;99256.48;;;12.92;78.62
37200;BME280;23096;50.892;16.746;2022-10-16T02:37:05;99255.66;;;12.92;78.69
37200;BME280;23096;50.892;16.746;2022-10-16T02:39:32;99256.48;;;12.92;78.73
37200;BME280;23096;50.892;16.746;2022-10-16T02:41:58;99253.48;;;12.93;78.76
37200;BME280;23096;50.892;16.746;2022-10-16T02:44:24;99250.80;;;12.94;78.79
37200;BME280;23096;50.892;16.746;2022-10-16T02:46:50;99251.66;;;12.95;78.82
37200;BME280;23096;50.892;16.746;2022-10-16T02:49:16;99252.50;;;12.95;78.81
37200;BME280;23096;50.892;16.746;2022-10-16T02:51:43;99252.55;;;12.94;78.84
37200;BME280;23096;50.892;16.746;2022-10-16T02:54:09;99257.67;;;12.95;78.83
37200;BME280;23096;50.892;16.746;2022-10-16T02:56:36;99252.50;;;12.95;78.91
37200;BME280;23096;50.892;16.746;2022-10-16T02:59:03;99248.16;;;12.96;78.97
37200;BME280;23096;50.892;16.746;2022-10-16T03:01:29;99254.96;;;12.98;78.96
37200;BME280;23096;50.892;16.746;2022-10-16T03:03:55;99254.56;;;12.97;78.98
37200;BME280;23096;50.892;16.746;2022-10-16T03:06:21;99251.45;;;12.99;79.03
37200;BME280;23096;50.892;16.746;2022-10-16T03:08:47;99246.63;;;13.02;79.09
37200;BME280;23096;50.892;16.746;2022-10-16T03:11:13;99240.53;;;13.03;79.09
37200;BME280;23096;50.892;16.746;2022-10-16T03:13:39;99246.94;;;13.04;79.11
37200;BME280;23096;50.892;16.746;2022-10-16T03:16:05;99247.71;;;13.07;79.17
37200;BME280;23096;50.892;16.746;2022-10-16T03:18:32;99256.70;;;13.08;79.10
37200;BME280;23096;50.892;16.746;2022-10-16T03:20:58;99262.27;;;13.09;79.15
37200;BME280;23096;50.892;16.746;2022-10-16T03:23:24;99261.70;;;13.13;79.18
37200;BME280;23096;50.892;16.746;2022-10-16T03:25:50;99273.28;;;13.14;79.11
37200;BME280;23096;50.892;16.746;2022-10-16T03:28:16;99265.11;;;13.13;79.13
37200;BME280;23096;50.892;16.746;2022-10-16T03:30:42;99275.77;;;13.16;79.16
37200;BME280;23096;50.892;16.746;2022-10-16T03:33:09;99278.82;;;13.15;79.14
37200;BME280;23096;50.892;16.746;2022-10-16T03:35:35;99277.59;;;13.14;79.07
37200;BME280;23096;50.892;16.746;2022-10-16T03:38:01;99280.70;;;13.12;79.07
37200;BME280;23096;50.892;16.746;2022-10-16T03:40:27;99288.98;;;13.10;79.03
37200;BME280;23096;50.892;16.746;2022-10-16T03:42:53;99285.98;;;13.09;79.10
37200;BME280;23096;50.892;16.746;2022-10-16T03:45:21;99288.14;;;13.09;79.14
37200;BME280;23096;50.892;16.746;2022-10-16T03:47:47;99284.27;;;13.09;79.20
37200;BME280;23096;50.892;16.746;2022-10-16T03:50:13;99279.09;;;13.09;79.18
37200;BME280;23096;50.892;16.746;2022-10-16T03:52:39;99277.80;;;13.09;79.22
37200;BME280;23096;50.892;16.746;2022-10-16T03:55:06;99278.63;;;13.10;79.28
37200;BME280;23096;50.892;16.746;2022-10-16T03:57:33;99282.76;;;13.14;79.41
37200;BME280;23096;50.892;16.746;2022-10-16T03:59:59;99281.66;;;13.19;79.47
37200;BME280;23096;50.892;16.746;2022-10-16T04:02:25;99279.36;;;13.23;79.55
37200;BME280;23096;50.892;16.746;2022-10-16T04:04:51;99283.86;;;13.29;79.55
37200;BME280;23096;50.892;16.746;2022-10-16T04:07:18;99296.24;;;13.32;79.51
37200;BME280;23096;50.892;16.746;2022-10-16T04:09:44;99292.54;;;13.28;79.39
37200;BME280;23096;50.892;16.746;2022-10-16T04:12:10;99300.67;;;13.29;79.39
37200;BME280;23096;50.892;16.746;2022-10-16T04:14:36;99310.66;;;13.28;79.33
37200;BME280;23096;50.892;16.746;2022-10-16T04:17:02;99312.90;;;13.25;79.32
37200;BME280;23096;50.892;16.746;2022-10-16T04:19:28;99317.77;;;13.22;79.30
37200;BME280;23096;50.892;16.746;2022-10-16T04:21:54;99320.03;;;13.20;79.37
37200;BME280;23096;50.892;16.746;2022-10-16T04:24:20;99309.28;;;13.19;79.40
37200;BME280;23096;50.892;16.746;2022-10-16T04:26:46;99306.30;;;13.18;79.45
37200;BME280;23096;50.892;16.746;2022-10-16T04:29:12;99307.99;;;13.19;79.54
37200;BME280;23096;50.892;16.746;2022-10-16T04:31:38;99305.23;;;13.23;79.62
37200;BME280;23096;50.892;16.746;2022-10-16T04:34:05;99309.36;;;13.28;79.66
37200;BME280;23096;50.892;16.746;2022-10-16T04:36:31;99314.02;;;13.30;79.70
37200;BME280;23096;50.892;16.746;2022-10-16T04:38:57;99312.63;;;13.33;79.74
37200;BME280;23096;50.892;16.746;2022-10-16T04:41:23;99307.70;;;13.37;79.79
37200;BME280;23096;50.892;16.746;2022-10-16T04:43:49;99311.47;;;13.40;79.83
37200;BME280;23096;50.892;16.746;2022-10-16T04:46:15;99306.55;;;13.44;79.85
37200;BME280;23096;50.892;16.746;2022-10-16T04:48:41;99309.84;;;13.48;79.85
37200;BME280;23096;50.892;16.746;2022-10-16T04:51:07;99311.08;;;13.49;79.86
37200;BME280;23096;50.892;16.746;2022-10-16T04:53:33;99313.51;;;13.52;79.85
37200;BME280;23096;50.892;16.746;2022-10-16T04:56:00;99312.62;;;13.53;79.79
37200;BME280;23096;50.892;16.746;2022-10-16T04:58:26;99326.85;;;13.53;79.76
37200;BME280;23096;50.892;16.746;2022-10-16T05:00:52;99330.34;;;13.52;79.75
37200;BME280;23096;50.892;16.746;2022-10-16T05:03:18;99325.63;;;13.52;79.75
37200;BME280;23096;50.892;16.746;2022-10-16T05:05:44;99331.72;;;13.51;79.76
37200;BME280;23096;50.892;16.746;2022-10-16T05:08:12;99328.67;;;13.51;79.75
37200;BME280;23096;50.892;16.746;2022-10-16T05:10:42;99332.09;;;13.52;79.73
37200;BME280;23096;50.892;16.746;2022-10-16T05:13:09;99323.50;;;13.51;79.77
37200;BME280;23096;50.892;16.746;2022-10-16T05:15:35;99341.61;;;13.51;79.76
37200;BME280;23096;50.892;16.746;2022-10-16T05:18:02;99339.02;;;13.51;79.81
37200;BME280;23096;50.892;16.746;2022-10-16T05:20:28;99340.63;;;13.54;79.81
37200;BME280;23096;50.892;16.746;2022-10-16T05:22:54;99336.75;;;13.54;79.81
37200;BME280;23096;50.892;16.746;2022-10-16T05:25:20;99339.34;;;13.54;79.79
37200;BME280;23096;50.892;16.746;2022-10-16T05:27:49;99340.63;;;13.54;79.81
37200;BME280;23096;50.892;16.746;2022-10-16T05:30:16;99342.33;;;13.55;79.85
37200;BME280;23096;50.892;16.746;2022-10-16T05:32:46;99351.39;;;13.55;79.81
37200;BME280;23096;50.892;16.746;2022-10-16T05:35:14;99353.45;;;13.57;79.87
37200;BME280;23096;50.892;16.746;2022-10-16T05:37:40;99352.03;;;13.60;79.85
37200;BME280;23096;50.892;16.746;2022-10-16T05:40:07;99348.98;;;13.60;79.85
37200;BME280;23096;50.892;16.746;2022-10-16T05:42:33;99354.05;;;13.64;79.84
37200;BME280;23096;50.892;16.746;2022-10-16T05:45:01;99358.30;;;13.65;79.84
37200;BME280;23096;50.892;16.746;2022-10-16T05:47:28;99363.05;;;13.65;79.83
37200;BME280;23096;50.892;16.746;2022-10-16T05:49:54;99371.52;;;13.69;79.86
37200;BME280;23096;50.892;16.746;2022-10-16T05:52:21;99369.30;;;13.70;79.85
37200;BME280;23096;50.892;16.746;2022-10-16T05:54:47;99369.64;;;13.72;79.86
37200;BME280;23096;50.892;16.746;2022-10-16T05:57:13;99357.89;;;13.74;79.84
37200;BME280;23096;50.892;16.746;2022-10-16T05:59:39;99359.13;;;13.75;79.84
37200;BME280;23096;50.892;16.746;2022-10-16T06:02:05;99360.30;;;13.78;79.88
37200;BME280;23096;50.892;16.746;2022-10-16T06:04:31;99361.91;;;13.81;79.87
37200;BME280;23096;50.892;16.746;2022-10-16T06:07:01;99376.09;;;13.83;79.84
37200;BME280;23096;50.892;16.746;2022-10-16T06:09:26;99372.60;;;13.84;79.84
37200;BME280;23096;50.892;16.746;2022-10-16T06:11:52;99376.86;;;13.85;79.87
37200;BME280;23096;50.892;16.746;2022-10-16T06:14:18;99376.73;;;13.88;79.86
37200;BME280;23096;50.892;16.746;2022-10-16T06:16:44;99375.75;;;13.90;79.90
37200;BME280;23096;50.892;16.746;2022-10-16T06:19:10;99381.73;;;13.92;79.86
37200;BME280;23096;50.892;16.746;2022-10-16T06:21:36;99378.16;;;13.95;79.87
37200;BME280;23096;50.892;16.746;2022-10-16T06:24:03;99374.58;;;13.97;79.90
37200;BME280;23096;50.892;16.746;2022-10-16T06:26:30;99375.37;;;13.99;79.89
37200;BME280;23096;50.892;16.746;2022-10-16T06:28:57;99378.64;;;14.03;79.87
37200;BME280;23096;50.892;16.746;2022-10-16T06:31:26;99386.28;;;14.06;79.86
37200;BME280;23096;50.892;16.746;2022-10-16T06:33:55;99389.71;;;14.07;79.82
37200;BME280;23096;50.892;16.746;2022-10-16T06:36:21;99391.72;;;14.10;79.87
37200;BME280;23096;50.892;16.746;2022-10-16T06:38:48;99401.48;;;14.14;79.89
37200;BME280;23096;50.892;16.746;2022-10-16T06:41:15;99412.66;;;14.16;79.88
37200;BME280;23096;50.892;16.746;2022-10-16T06:43:42;99421.72;;;14.16;79.90
37200;BME280;23096;50.892;16.746;2022-10-16T06:46:10;99420.55;;;14.23;79.94
37200;BME280;23096;50.892;16.746;2022-10-16T06:48:37;99428.50;;;14.29;79.93
37200;BME280;23096;50.892;16.746;2022-10-16T06:51:05;99426.16;;;14.33;79.94
37200;BME280;23096;50.892;16.746;2022-10-16T06:53:33;99424.63;;;14.37;79.98
37200;BME280;23096;50.892;16.746;2022-10-16T06:56:11;99433.05;;;14.43;79.98
37200;BME280;23096;50.892;16.746;2022-10-16T06:58:42;99441.00;;;14.48;80.02
37200;BME280;23096;50.892;16.746;2022-10-16T07:01:08;99443.88;;;14.52;79.95
37200;BME280;23096;50.892;16.746;2022-10-16T07:03:41;99444.17;;;14.55;79.94
37200;BME280;23096;50.892;16.746;2022-10-16T07:06:09;99443.15;;;14.59;79.97
37200;BME280;23096;50.892;16.746;2022-10-16T07:08:38;99436.07;;;14.63;79.99
37200;BME280;23096;50.892;16.746;2022-10-16T07:11:06;99442.42;;;14.66;79.99
37200;BME280;23096;50.892;16.746;2022-10-16T07:13:33;99446.71;;;14.67;79.96
37200;BME280;23096;50.892;16.746;2022-10-16T07:16:13;99445.78;;;14.68;79.95
37200;BME280;23096;50.892;16.746;2022-10-16T07:18:43;99441.00;;;14.69;79.94
37200;BME280;23096;50.892;16.746;2022-10-16T07:21:17;99443.53;;;14.70;79.92
37200;BME280;23096;50.892;16.746;2022-10-16T07:23:40;99443.06;;;14.71;79.96
37200;BME280;23096;50.892;16.746;2022-10-16T07:26:06;99444.72;;;14.72;79.97
37200;BME280;23096;50.892;16.746;2022-10-16T07:28:33;99448.02;;;14.75;79.99
37200;BME280;23096;50.892;16.746;2022-10-16T07:31:02;99447.89;;;14.79;80.01
37200;BME280;23096;50.892;16.746;2022-10-16T07:33:30;99450.72;;;14.83;80.08
37200;BME280;23096;50.892;16.746;2022-10-16T07:35:57;99447.46;;;14.88;80.13
37200;BME280;23096;50.892;16.746;2022-10-16T07:38:23;99454.88;;;14.95;80.22
37200;BME280;23096;50.892;16.746;2022-10-16T07:40:55;99448.19;;;15.00;80.19
37200;BME280;23096;50.892;16.746;2022-10-16T07:43:23;99442.70;;;15.06;80.25
37200;BME280;23096;50.892;16.746;2022-10-16T07:45:50;99444.95;;;15.14;80.28
37200;BME280;23096;50.892;16.746;2022-10-16T07:48:16;99455.33;;;15.23;80.35
37200;BME280;23096;50.892;16.746;2022-10-16T07:50:43;99454.13;;;15.30;80.30
37200;BME280;23096;50.892;16.746;2022-10-16T07:53:10;99466.44;;;15.35;80.24
37200;BME280;23096;50.892;16.746;2022-10-16T07:55:36;99468.29;;;15.42;80.27
37200;BME280;23096;50.892;16.746;2022-10-16T07:58:02;99464.48;;;15.49;80.24
37200;BME280;23096;50.892;16.746;2022-10-16T08:00:28;99466.77;;;15.55;80.20
37200;BME280;23096;50.892;16.746;2022-10-16T08:02:54;99466.55;;;15.60;80.13
37200;BME280;23096;50.892;16.746;2022-10-16T08:05:24;99467.17;;;15.65;80.11
37200;BME280;23096;50.892;16.746;2022-10-16T08:07:50;99468.23;;;15.69;80.13
37200;BME280;23096;50.892;16.746;2022-10-16T08:10:16;99471.70;;;15.79;80.17
37200;BME280;23096;50.892;16.746;2022-10-16T08:12:43;99477.05;;;15.84;80.11
37200;BME280;23096;50.892;16.746;2022-10-16T08:15:09;99476.75;;;15.90;80.12
37200;BME280;23096;50.892;16.746;2022-10-16T08:17:36;99475.06;;;15.98;80.09
37200;BME280;23096;50.892;16.746;2022-10-16T08:20:02;99473.47;;;16.04;80.02
37200;BME280;23096;50.892;16.746;2022-10-16T08:22:28;99481.77;;;16.11;79.98
37200;BME280;23096;50.892;16.746;2022-10-16T08:24:54;99481.55;;;16.16;79.96
37200;BME280;23096;50.892;16.746;2022-10-16T08:27:20;99477.41;;;16.20;79.89
37200;BME280;23096;50.892;16.746;2022-10-16T08:29:48;99477.11;;;16.26;79.88
37200;BME280;23096;50.892;16.746;2022-10-16T08:32:14;99488.63;;;16.29;79.76
37200;BME280;23096;50.892;16.746;2022-10-16T08:34:41;99500.57;;;16.34;79.71
37200;BME280;23096;50.892;16.746;2022-10-16T08:37:07;99505.52;;;16.38;79.69
37200;BME280;23096;50.892;16.746;2022-10-16T08:39:34;99503.99;;;16.43;79.65
37200;BME280;23096;50.892;16.746;2022-10-16T08:50:10;99516.30;;;16.73;79.62
37200;BME280;23096;50.892;16.746;2022-10-16T08:52:39;99515.44;;;16.81;79.53
37200;BME280;23096;50.892;16.746;2022-10-16T08:55:28;99523.77;;;16.88;79.35
37200;BME280;23096;50.892;16.746;2022-10-16T08:58:16;99529.22;;;16.92;79.24
37200;BME280;23096;50.892;16.746;2022-10-16T09:00:45;99525.05;;;16.96;79.13
37200;BME280;23096;50.892;16.746;2022-10-16T09:20:49;99532.80;;;17.30;78.45
37200;BME280;23096;50.892;16.746;2022-10-16T09:25:49;99528.55;;;17.36;78.22
37200;BME280;23096;50.892;16.746;2022-10-16T09:28:17;99527.08;;;17.39;78.08
37200;BME280;23096;50.892;16.746;2022-10-16T09:30:43;99527.28;;;17.43;78.01
37200;BME280;23096;50.892;16.746;2022-10-16T09:33:11;99527.03;;;17.48;77.92
37200;BME280;23096;50.892;16.746;2022-10-16T09:35:45;99528.89;;;17.53;77.86
37200;BME280;23096;50.892;16.746;2022-10-16T09:38:29;99531.17;;;17.59;77.80
37200;BME280;23096;50.892;16.746;2022-10-16T09:40:57;99523.00;;;17.65;77.75
37200;BME280;23096;50.892;16.746;2022-10-16T09:43:28;99526.47;;;17.73;77.68
37200;BME280;23096;50.892;16.746;2022-10-16T09:46:04;99526.61;;;17.78;77.58
37200;BME280;23096;50.892;16.746;2022-10-16T09:51:04;99541.15;;;18.06;77.66
37200;BME280;23096;50.892;16.746;2022-10-16T09:53:43;99534.38;;;18.25;77.63
37200;BME280;23096;50.892;16.746;2022-10-16T09:56:20;99536.63;;;18.45;77.58
37200;BME280;23096;50.892;16.746;2022-10-16T09:58:43;99523.50;;;18.61;77.40
37200;BME280;23096;50.892;16.746;2022-10-16T10:01:11;99535.42;;;18.72;77.15
37200;BME280;23096;50.892;16.746;2022-10-16T10:03:39;99532.93;;;18.85;77.02
37200;BME280;23096;50.892;16.746;2022-10-16T10:06:17;99530.52;;;18.96;76.92
37200;BME280;23096;50.892;16.746;2022-10-16T10:08:52;99529.64;;;19.10;76.67
37200;BME280;23096;50.892;16.746;2022-10-16T10:14:17;99530.55;;;19.31;76.18
37200;BME280;23096;50.892;16.746;2022-10-16T10:16:51;99533.49;;;19.39;75.92
37200;BME280;23096;50.892;16.746;2022-10-16T10:19:21;99527.03;;;19.45;75.62
37200;BME280;23096;50.892;16.746;2022-10-16T10:21:49;99526.56;;;19.52;75.53
37200;BME280;23096;50.892;16.746;2022-10-16T10:24:17;99556.20;;;19.59;75.22
37200;BME280;23096;50.892;16.746;2022-10-16T10:26:48;99539.95;;;19.61;74.96
37200;BME280;23096;50.892;16.746;2022-10-16T10:29:24;99540.12;;;19.65;74.75
37200;BME280;23096;50.892;16.746;2022-10-16T10:32:06;99549.81;;;19.70;74.57
37200;BME280;23096;50.892;16.746;2022-10-16T10:45:28;99524.12;;;19.84;73.58
37200;BME280;23096;50.892;16.746;2022-10-16T10:51:10;99529.70;;;19.85;73.17
37200;BME280;23096;50.892;16.746;2022-10-16T10:53:50;99530.72;;;19.89;73.15
37200;BME280;23096;50.892;16.746;2022-10-16T10:56:26;99530.84;;;20.01;72.99
37200;BME280;23096;50.892;16.746;2022-10-16T10:59:14;99546.97;;;20.07;72.72
37200;BME280;23096;50.892;16.746;2022-10-16T11:07:34;99523.02;;;20.26;72.41
37200;BME280;23096;50.892;16.746;2022-10-16T11:10:02;99521.20;;;20.34;72.15
37200;BME280;23096;50.892;16.746;2022-10-16T11:12:38;99526.21;;;20.37;71.98
37200;BME280;23096;50.892;16.746;2022-10-16T11:17:50;99535.95;;;20.48;71.66
37200;BME280;23096;50.892;16.746;2022-10-16T11:20:19;99529.94;;;20.40;71.32
37200;BME280;23096;50.892;16.746;2022-10-16T11:22:52;99535.16;;;20.27;71.11
37200;BME280;23096;50.892;16.746;2022-10-16T11:25:29;99535.84;;;20.24;71.09
37200;BME280;23096;50.892;16.746;2022-10-16T11:27:59;99534.88;;;20.25;71.08
37200;BME280;23096;50.892;16.746;2022-10-16T11:30:46;99536.04;;;20.21;70.82
37200;BME280;23096;50.892;16.746;2022-10-16T11:33:35;99531.97;;;20.17;70.80
37200;BME280;23096;50.892;16.746;2022-10-16T11:47:39;99540.41;;;20.40;70.41
37200;BME280;23096;50.892;16.746;2022-10-16T11:55:44;99535.16;;;20.15;70.03
37200;BME280;23096;50.892;16.746;2022-10-16T12:03:42;99547.08;;;19.86;69.85
37200;BME280;23096;50.892;16.746;2022-10-16T12:06:10;99552.72;;;19.80;69.84
37200;BME280;23096;50.892;16.746;2022-10-16T12:08:52;99569.06;;;19.76;69.78
37200;BME280;23096;50.892;16.746;2022-10-16T12:11:23;99565.59;;;19.68;69.80
37200;BME280;23096;50.892;16.746;2022-10-16T12:13:51;99568.04;;;19.64;69.77
37200;BME280;23096;50.892;16.746;2022-10-16T12:16:21;99564.05;;;19.59;69.72
37200;BME280;23096;50.892;16.746;2022-10-16T12:18:48;99560.89;;;19.53;69.70
37200;BME280;23096;50.892;16.746;2022-10-16T12:21:15;99567.82;;;19.47;69.69
37200;BME280;23096;50.892;16.746;2022-10-16T12:23:51;99561.47;;;19.44;69.73
37200;BME280;23096;50.892;16.746;2022-10-16T12:26:26;99574.28;;;19.42;69.68
37200;BME280;23096;50.892;16.746;2022-10-16T12:28:54;99578.86;;;19.38;69.71
37200;BME280;23096;50.892;16.746;2022-10-16T12:31:21;99578.38;;;19.39;69.73
37200;BME280;23096;50.892;16.746;2022-10-16T12:34:01;99578.56;;;19.35;69.71
37200;BME280;23096;50.892;16.746;2022-10-16T12:38:58;99596.30;;;19.30;69.71
37200;BME280;23096;50.892;16.746;2022-10-16T12:41:26;99593.42;;;19.28;69.72
37200;BME280;23096;50.892;16.746;2022-10-16T12:43:54;99591.85;;;19.25;69.69
37200;BME280;23096;50.892;16.746;2022-10-16T12:46:24;99590.98;;;19.25;69.71
37200;BME280;23096;50.892;16.746;2022-10-16T12:51:51;99595.38;;;19.24;69.75
37200;BME280;23096;50.892;16.746;2022-10-16T12:54:18;99605.00;;;19.24;69.75
37200;BME280;23096;50.892;16.746;2022-10-16T12:57:17;99608.45;;;19.24;69.79
37200;BME280;23096;50.892;16.746;2022-10-16T12:59:25;99602.30;;;19.25;69.80
37200;BME280;23096;50.892;16.746;2022-10-16T13:07:54;99612.53;;;19.28;69.88
37200;BME280;23096;50.892;16.746;2022-10-16T13:10:41;99618.14;;;19.29;69.84
37200;BME280;23096;50.892;16.746;2022-10-16T13:16:05;99619.63;;;19.33;69.86
37200;BME280;23096;50.892;16.746;2022-10-16T13:21:14;99617.48;;;19.40;69.90
37200;BME280;23096;50.892;16.746;2022-10-16T13:24:05;99616.91;;;19.42;69.90
37200;BME280;23096;50.892;16.746;2022-10-16T13:29:29;99614.20;;;19.44;69.84
37200;BME280;23096;50.892;16.746;2022-10-16T13:31:57;99622.22;;;19.48;69.88
37200;BME280;23096;50.892;16.746;2022-10-16T13:34:24;99626.78;;;19.51;69.92
37200;BME280;23096;50.892;16.746;2022-10-16T13:36:51;99627.81;;;19.56;69.96
37200;BME280;23096;50.892;16.746;2022-10-16T13:39:25;99620.41;;;19.63;69.98
37200;BME280;23096;50.892;16.746;2022-10-16T13:42:12;99613.50;;;19.69;70.01
37200;BME280;23096;50.892;16.746;2022-10-16T13:44:52;99614.34;;;19.77;70.01
37200;BME280;23096;50.892;16.746;2022-10-16T13:47:20;99622.34;;;19.81;69.92
37200;BME280;23096;50.892;16.746;2022-10-16T13:52:38;99617.66;;;19.86;69.89
37200;BME280;23096;50.892;16.746;2022-10-16T13:55:16;99623.79;;;19.92;69.83
37200;BME280;23096;50.892;16.746;2022-10-16T13:57:40;99621.38;;;19.96;69.73
37200;BME280;23096;50.892;16.746;2022-10-16T14:00:25;99629.22;;;19.96;69.58
37200;BME280;23096;50.892;16.746;2022-10-16T14:02:57;99630.97;;;19.96;69.51
37200;BME280;23096;50.892;16.746;2022-10-16T14:05:25;99643.59;;;19.96;69.41
37200;BME280;23096;50.892;16.746;2022-10-16T14:07:52;99645.09;;;19.93;69.29
37200;BME280;23096;50.892;16.746;2022-10-16T14:10:26;99650.03;;;19.90;69.28
37200;BME280;23096;50.892;16.746;2022-10-16T14:12:59;99655.48;;;19.87;69.15
37200;BME280;23096;50.892;16.746;2022-10-16T14:15:26;99658.47;;;19.81;69.11
37200;BME280;23096;50.892;16.746;2022-10-16T14:17:53;99660.91;;;19.77;69.11
37200;BME280;23096;50.892;16.746;2022-10-16T14:20:20;99661.96;;;19.75;69.05
37200;BME280;23096;50.892;16.746;2022-10-16T14:22:48;99664.82;;;19.70;68.99
37200;BME280;23096;50.892;16.746;2022-10-16T14:30:53;99668.32;;;19.56;68.98
37200;BME280;23096;50.892;16.746;2022-10-16T14:33:25;99666.81;;;19.52;68.96
37200;BME280;23096;50.892;16.746;2022-10-16T14:38:39;99660.28;;;19.45;68.96
37200;BME280;23096;50.892;16.746;2022-10-16T14:41:07;99666.55;;;19.42;69.03
37200;BME280;23096;50.892;16.746;2022-10-16T14:43:34;99660.11;;;19.41;69.03
37200;BME280;23096;50.892;16.746;2022-10-16T14:46:13;99666.25;;;19.40;69.02
37200;BME280;23096;50.892;16.746;2022-10-16T14:48:44;99671.30;;;19.35;69.01
37200;BME280;23096;50.892;16.746;2022-10-16T14:51:15;99669.64;;;19.34;69.08
37200;BME280;23096;50.892;16.746;2022-10-16T14:53:45;99672.61;;;19.35;69.09
37200;BME280;23096;50.892;16.746;2022-10-16T14:56:16;99671.69;;;19.37;69.17
37200;BME280;23096;50.892;16.746;2022-10-16T14:58:46;99672.91;;;19.38;69.16
37200;BME280;23096;50.892;16.746;2022-10-16T15:01:13;99669.52;;;19.36;69.08
37200;BME280;23096;50.892;16.746;2022-10-16T15:03:39;99667.95;;;19.33;69.09
37200;BME280;23096;50.892;16.746;2022-10-16T15:06:09;99674.95;;;19.33;69.09
37200;BME280;23096;50.892;16.746;2022-10-16T15:08:39;99671.48;;;19.32;69.10